Main page
METAR-TAF:

METAR-TAF

Airports :

Warton Aerodrome

Preston, England

latitude: 53-44-42N, longitude: 2-53-02W, elevation: 17 m

Current weather observation

The report was made 11 hours and 28 minutes ago, at 17:50 UTC
Wind 5 kt from the South
Temperature 16°C
Humidity 94%
Pressure 1009 hPa
Visibility 10 km or more
Broken clouds at a height of 2100 ft

METAR: EGNO 181750Z 18005KT 9999 BKN021 16/15 Q1009

Time: 06:18 (05:18 UTC)

Forecast

The report was made 13 hours and 35 minutes ago, at 15:43 UTC
Forecast valid from 18 at 15 UTC to 18 at 18 UTC
Wind 10 kt from the South/Southeast
Visibility 10 km or more
Few clouds at a height of 900 ft
Broken clouds at a height of 2500 ft
Temporary
from 18 at 15 UTC to 18 at 17 UTC
Visibility: 6000 m
Broken clouds at a height of 900 ft

TAF: EGNO 181543Z 1815/1818 16010KT 9999 FEW009 BKN025 TEMPO 1815/1817 6000 BKN009

Weather observations and forecasts of more than 4000 airports (METAR and TAF reports).

The available stations are represented by yellow and red dots on the map.

Hover mouse over dot to see the name of the station.

Then click to see weather observations and forecasts.

To change the map : click on the green buttons with a black cross to zoom in, on the green button with a dash to zoom out, or on the green arrows for adjacent maps.


METAR-TAF: